Time;durP1;ratioP1;P1;durP2;ratioP2;P2;SDS_P1;SDS_P2;PMS_P1;PMS_P2;Temp;Humidity;BMP_temperature;BMP_pressure;BME280_temperature;BME280_humidity;BME280_pressure;Samples;Min_cycle;Max_cycle;Signal;HPM_P1;HPM_P2
2021/06/23 00:01:14;;;;;;;29.02;24.80;;;;;;;21.24;79.46;96458.91;1661000;84;20967;-81
2021/06/23 00:03:40;;;;;;;29.72;24.25;;;;;;;21.27;79.50;96467.70;1660932;84;20996;-81
2021/06/23 00:06:06;;;;;;;31.73;27.10;;;;;;;21.26;79.54;96460.81;1662600;85;20975;-81
2021/06/23 00:08:31;;;;;;;35.83;29.42;;;;;;;21.26;79.16;96458.97;1647804;85;20950;-80
2021/06/23 00:10:58;;;;;;;35.88;29.07;;;;;;;21.26;79.52;96462.14;1644737;84;20974;-81
2021/06/23 00:13:26;;;;;;;37.53;31.90;;;;;;;21.20;79.50;96471.03;1663518;84;21046;-81
2021/06/23 00:15:52;;;;;;;37.78;31.05;;;;;;;21.13;79.68;96472.52;1678646;84;20996;-81
2021/06/23 00:18:18;;;;;;;41.25;32.05;;;;;;;21.15;79.72;96480.20;1671104;85;21313;-81
2021/06/23 00:20:43;;;;;;;38.92;30.23;;;;;;;21.17;79.81;96480.78;1666328;84;20984;-81
2021/06/23 00:23:09;;;;;;;37.65;29.48;;;;;;;21.20;79.75;96483.72;1676374;84;20917;-81
2021/06/23 00:25:35;;;;;;;41.15;32.90;;;;;;;21.17;79.76;96472.85;1656911;84;21239;-81
2021/06/23 00:28:00;;;;;;;41.33;33.67;;;;;;;21.17;79.76;96472.85;1682949;84;20921;-81
2021/06/23 00:30:26;;;;;;;45.63;34.23;;;;;;;21.17;79.84;96486.06;1682915;84;20987;-81
2021/06/23 00:32:53;;;;;;;45.95;35.48;;;;;;;21.16;79.95;96480.50;1669123;84;21067;-81
2021/06/23 00:35:19;;;;;;;44.70;34.50;;;;;;;21.14;79.95;96487.33;1681539;84;20991;-81
2021/06/23 00:37:45;;;;;;;46.40;34.20;;;;;;;21.15;80.15;96481.52;1679919;84;20900;-81
2021/06/23 00:40:12;;;;;;;49.25;35.70;;;;;;;21.15;80.12;96478.38;1668852;84;21344;-81
2021/06/23 00:42:37;;;;;;;50.20;35.55;;;;;;;21.17;80.29;96475.49;1650053;85;21274;-81
2021/06/23 00:45:11;;;;;;;51.77;37.13;;;;;;;21.16;80.24;96477.34;1657116;84;20919;-81
2021/06/23 00:47:38;;;;;;;50.95;37.90;;;;;;;21.18;80.22;96480.53;1679427;84;21041;-81
2021/06/23 00:50:06;;;;;;;51.90;39.10;;;;;;;21.15;80.18;96480.20;1665913;85;20962;-81
2021/06/23 00:52:33;;;;;;;50.83;37.53;;;;;;;21.07;80.20;96477.48;1665923;85;21006;-81
2021/06/23 00:54:59;;;;;;;55.23;38.92;;;;;;;21.07;80.38;96470.08;1663538;85;20975;-81
2021/06/23 00:57:25;;;;;;;48.00;35.52;;;;;;;21.08;80.36;96469.03;1657072;85;20977;-81
2021/06/23 00:59:52;;;;;;;45.73;33.98;;;;;;;21.06;80.22;96472.44;1668295;85;20973;-81
2021/06/23 01:02:19;;;;;;;49.98;35.13;;;;;;;21.04;80.37;96474.53;1671458;85;20977;-81
2021/06/23 01:04:48;;;;;;;52.60;36.23;;;;;;;21.04;80.53;96475.33;1640658;85;20992;-81
2021/06/23 01:07:15;;;;;;;54.03;35.70;;;;;;;21.05;80.50;96474.81;1648714;85;20953;-81
2021/06/23 01:09:41;;;;;;;44.95;32.55;;;;;;;21.01;80.46;96467.11;1644311;85;20913;-81
2021/06/23 01:12:29;;;;;;;46.90;33.70;;;;;;;21.02;80.63;96468.70;1665173;85;21017;-81
2021/06/23 01:15:00;;;;;;;45.58;33.30;;;;;;;21.04;80.47;96466.09;1662297;85;20933;-81
2021/06/23 01:17:31;;;;;;;47.90;33.60;;;;;;;21.04;80.53;96466.61;1665636;85;20996;-81
2021/06/23 01:20:07;;;;;;;;;;;;;;;21.02;80.45;96470.02;1674048;85;20913;-82
2021/06/23 01:22:34;;;;;;;46.13;31.65;;;;;;;21.01;80.48;96478.47;1667493;85;20098;-81
2021/06/23 01:25:00;;;;;;;47.75;34.13;;;;;;;20.85;80.44;96484.08;1675158;85;20905;-81
2021/06/23 01:27:25;;;;;;;42.73;32.15;;;;;;;20.77;80.70;96484.48;1676306;85;21036;-81
2021/06/23 01:29:51;;;;;;;47.30;32.13;;;;;;;20.78;80.88;96485.27;1664248;85;20929;-81
2021/06/23 01:32:17;;;;;;;47.85;34.63;;;;;;;20.78;81.06;96492.67;1663271;85;21283;-81
2021/06/23 01:34:43;;;;;;;50.40;34.83;;;;;;;20.75;80.97;96498.45;1668367;85;21275;-81
2021/06/23 01:37:09;;;;;;;51.50;34.65;;;;;;;20.74;80.95;96502.13;1661414;85;20917;-81
2021/06/23 01:39:34;;;;;;;52.62;35.68;;;;;;;20.71;80.96;96499.98;1668455;85;21255;-81
2021/06/23 01:42:00;;;;;;;52.45;35.48;;;;;;;20.69;81.06;96508.67;1680327;85;20885;-81
2021/06/23 01:44:29;;;;;;;52.62;35.60;;;;;;;20.65;81.13;96510.17;1680692;85;20994;-81
2021/06/23 01:46:56;;;;;;;49.38;34.23;;;;;;;20.62;81.40;96516.74;1680407;85;20925;-81
2021/06/23 01:49:26;;;;;;;54.25;33.70;;;;;;;20.58;81.43;96513.52;1653987;85;21401;-81
2021/06/23 01:51:53;;;;;;;47.60;33.45;;;;;;;20.56;81.52;96516.40;1650700;85;21014;-81
2021/06/23 01:54:18;;;;;;;47.73;33.05;;;;;;;20.54;81.57;96520.32;1640855;86;20973;-81
2021/06/23 01:56:45;;;;;;;49.15;34.13;;;;;;;20.56;81.70;96516.40;1630359;87;20964;-81
2021/06/23 01:59:11;;;;;;;48.15;33.85;;;;;;;20.58;81.68;96517.47;1639694;86;20949;-81
2021/06/23 02:02:21;;;;;;;56.80;36.95;;;;;;;20.63;81.66;96518.86;1640252;86;20982;-81
2021/06/23 02:05:14;;;;;;;50.48;32.80;;;;;;;20.65;81.85;96521.53;1643643;87;21001;-81
2021/06/23 02:08:03;;;;;;;56.40;36.35;;;;;;;20.62;81.73;96515.42;1661199;85;20941;-81
2021/06/23 02:10:46;;;;;;;52.10;35.95;;;;;;;20.53;81.66;96518.73;1674706;84;20931;-81
2021/06/23 02:14:03;;;;;;;53.40;36.90;;;;;;;20.49;81.84;96515.75;1640367;86;20977;-81
2021/06/23 02:16:29;;;;;;;49.10;34.65;;;;;;;20.48;81.85;96514.14;1596622;87;20964;-81
2021/06/23 02:19:06;;;;;;;51.55;33.30;;;;;;;20.48;82.00;96512.83;1640090;85;21264;-81
2021/06/23 02:21:40;;;;;;;43.60;32.33;;;;;;;20.52;82.05;96512.65;1649324;85;20945;-81
2021/06/23 02:24:08;;;;;;;46.90;31.52;;;;;;;20.53;82.04;96513.45;1662683;84;21298;-81
2021/06/23 02:26:34;;;;;;;42.83;30.02;;;;;;;20.53;82.13;96516.09;1677937;85;20947;-81
2021/06/23 02:28:59;;;;;;;39.53;30.35;;;;;;;20.51;82.08;96518.97;1656398;85;20919;-80
2021/06/23 02:31:26;;;;;;;44.40;29.98;;;;;;;20.54;82.10;96522.96;1638257;86;21307;-81
2021/06/23 02:33:54;;;;;;;43.30;30.92;;;;;;;20.50;81.91;96528.42;1634927;86;21066;-81
2021/06/23 02:36:20;;;;;;;49.60;32.90;;;;;;;20.44;82.02;96538.11;1675043;84;20928;-81
2021/06/23 02:38:45;;;;;;;45.45;32.55;;;;;;;20.44;82.18;96539.43;1677819;85;20900;-81
2021/06/23 02:41:11;;;;;;;46.98;33.02;;;;;;;20.44;82.20;96534.15;1677889;84;20889;-81
2021/06/23 02:43:37;;;;;;;44.15;33.02;;;;;;;20.43;82.25;96539.15;1646423;85;21020;-81
2021/06/23 02:46:03;;;;;;;46.73;31.85;;;;;;;20.45;82.30;96537.59;1663953;85;20938;-81
2021/06/23 02:48:29;;;;;;;48.80;34.08;;;;;;;20.45;82.25;96538.91;1648673;85;21054;-81
2021/06/23 02:51:08;;;;;;;47.78;34.25;;;;;;;20.42;82.29;96536.75;1649727;85;20932;-81
2021/06/23 02:53:34;;;;;;;48.02;33.90;;;;;;;20.43;82.37;96544.95;1667054;85;21291;-81
2021/06/23 02:56:00;;;;;;;47.95;31.37;;;;;;;20.45;82.56;96538.91;1640596;86;20919;-81
2021/06/23 02:58:26;;;;;;;46.42;30.90;;;;;;;20.37;82.31;96538.77;1648181;86;21036;-81
2021/06/23 03:00:52;;;;;;;43.28;30.35;;;;;;;20.34;82.56;96540.58;1664205;85;20976;-80
2021/06/23 03:03:19;;;;;;;43.80;30.00;;;;;;;20.31;82.52;96539.70;1638665;85;21384;-81
2021/06/23 03:05:46;;;;;;;41.60;28.80;;;;;;;20.32;82.61;96544.74;1646087;85;20986;-81
2021/06/23 03:08:11;;;;;;;35.65;28.10;;;;;;;20.35;82.73;96545.61;1635594;86;21292;-81
2021/06/23 03:10:37;;;;;;;39.33;28.42;;;;;;;20.43;82.85;96543.63;1660430;85;20928;-81
2021/06/23 03:13:03;;;;;;;37.53;27.62;;;;;;;20.46;82.65;96539.98;1663314;85;20980;-81
2021/06/23 03:15:29;;;;;;;36.65;26.35;;;;;;;20.44;82.57;96539.95;1659677;85;21283;-81
2021/06/23 03:17:55;;;;;;;33.33;25.35;;;;;;;20.43;82.62;96543.63;1661621;85;21027;-81
2021/06/23 03:20:20;;;;;;;32.08;24.18;;;;;;;20.43;82.64;96548.39;1663808;85;20976;-81
2021/06/23 03:22:46;;;;;;;30.90;23.02;;;;;;;20.46;82.55;96545.78;1659404;86;21034;-81
2021/06/23 03:25:13;;;;;;;29.00;22.55;;;;;;;20.49;82.50;96548.73;1642786;86;21349;-81
2021/06/23 03:27:39;;;;;;;27.67;22.13;;;;;;;20.53;82.56;96551.72;1642959;85;21288;-81
2021/06/23 03:30:06;;;;;;;24.12;20.82;;;;;;;20.56;82.43;96556.52;1664397;85;20979;-81
2021/06/23 03:32:32;;;;;;;25.17;20.10;;;;;;;20.54;82.30;96555.44;1664034;85;20936;-81
2021/06/23 03:34:58;;;;;;;24.43;20.40;;;;;;;20.53;82.43;96557.80;1644991;86;21293;-82
2021/06/23 03:37:24;;;;;;;25.90;20.30;;;;;;;20.50;82.35;96558.28;1686768;83;20968;-81
2021/06/23 03:39:49;;;;;;;22.42;18.87;;;;;;;20.52;82.33;96559.36;1643304;85;20995;-81
2021/06/23 03:42:15;;;;;;;22.85;18.48;;;;;;;20.56;82.27;96563.11;1663423;85;20920;-81
2021/06/23 03:44:41;;;;;;;23.95;20.27;;;;;;;20.56;82.27;96563.11;1661431;85;20981;-81
2021/06/23 03:47:06;;;;;;;26.82;22.45;;;;;;;20.57;82.31;96566.83;1664006;85;20928;-81
2021/06/23 03:49:33;;;;;;;25.00;20.43;;;;;;;20.58;82.37;96570.27;1658205;85;20999;-81
2021/06/23 03:52:00;;;;;;;28.80;21.35;;;;;;;20.57;82.33;96575.27;1666763;85;21317;-81
2021/06/23 03:54:25;;;;;;;27.22;20.70;;;;;;;20.54;82.30;96576.55;1664024;85;20984;-81
2021/06/23 03:56:52;;;;;;;25.20;20.20;;;;;;;20.55;82.23;96583.95;1666352;85;20932;-81
2021/06/23 03:59:17;;;;;;;27.67;20.90;;;;;;;20.52;82.25;96591.04;1658695;85;20997;-81
2021/06/23 04:01:43;;;;;;;28.60;20.88;;;;;;;20.47;82.31;96597.01;1664387;85;21360;-81
2021/06/23 04:04:09;;;;;;;26.25;20.75;;;;;;;20.43;82.31;96605.13;1666550;86;21083;-80
2021/06/23 04:06:34;;;;;;;27.27;20.23;;;;;;;20.43;82.50;96599.05;1664959;85;20992;-81
2021/06/23 04:09:00;;;;;;;28.80;20.23;;;;;;;20.44;82.55;96587.45;1665024;85;21037;-81
2021/06/23 04:11:26;;;;;;;27.52;19.57;;;;;;;20.42;82.48;96587.70;1666624;85;21293;-81
2021/06/23 04:13:52;;;;;;;25.92;19.07;;;;;;;20.40;82.58;96592.39;1666574;85;20991;-81
2021/06/23 04:16:17;;;;;;;23.00;19.05;;;;;;;20.41;82.61;96598.47;1662241;85;21265;-81
2021/06/23 04:18:43;;;;;;;20.52;18.25;;;;;;;20.37;82.49;96595.51;1636546;86;21267;-81
2021/06/23 04:21:09;;;;;;;21.48;16.85;;;;;;;20.31;82.56;96591.96;1661959;85;20916;-81
2021/06/23 04:23:35;;;;;;;21.20;17.17;;;;;;;20.30;82.57;96585.09;1653545;85;20976;-80
2021/06/23 04:26:01;;;;;;;22.77;17.95;;;;;;;20.31;82.77;96586.69;1631375;86;20940;-81
2021/06/23 04:28:27;;;;;;;21.93;17.85;;;;;;;20.34;82.85;96591.51;1657771;86;20975;-81
2021/06/23 04:30:53;;;;;;;19.30;15.45;;;;;;;20.37;83.02;96590.23;1654965;85;21330;-81
2021/06/23 04:33:19;;;;;;;17.98;15.45;;;;;;;20.33;82.89;96591.72;1666026;85;21003;-81
2021/06/23 04:35:44;;;;;;;18.27;15.25;;;;;;;20.30;82.91;96593.00;1638694;85;20945;-80
2021/06/23 04:38:10;;;;;;;17.32;14.13;;;;;;;20.27;83.01;96596.13;1650997;85;21368;-80
2021/06/23 04:40:36;;;;;;;15.83;14.13;;;;;;;20.35;83.11;96596.27;1650364;85;21023;-80
2021/06/23 04:43:03;;;;;;;18.02;14.75;;;;;;;20.38;82.98;96599.23;1663223;85;21066;-80
2021/06/23 04:45:28;;;;;;;16.97;13.88;;;;;;;20.39;82.88;96596.87;1666492;85;20955;-81
2021/06/23 04:47:54;;;;;;;15.85;14.15;;;;;;;20.38;82.83;96601.06;1646786;85;21241;-80
2021/06/23 04:50:21;;;;;;;18.02;15.28;;;;;;;20.35;83.08;96604.19;1637605;86;21004;-80
2021/06/23 04:52:47;;;;;;;15.10;13.40;;;;;;;20.30;83.15;96602.23;1668967;85;21083;-81
2021/06/23 04:55:16;;;;;;;14.83;12.50;;;;;;;20.25;83.19;96596.08;1655339;86;21041;-80
2021/06/23 04:57:40;;;;;;;14.93;13.43;;;;;;;20.28;83.11;96598.23;1655299;85;21030;-80
2021/06/23 05:00:08;;;;;;;13.00;11.22;;;;;;;20.29;83.17;96590.08;1666319;85;20977;-80
2021/06/23 05:02:34;;;;;;;13.10;11.80;;;;;;;20.35;83.33;96583.08;1635670;86;20988;-80
2021/06/23 05:05:00;;;;;;;12.23;10.50;;;;;;;20.43;83.26;96585.34;1665884;85;21077;-81
2021/06/23 05:07:26;;;;;;;12.37;11.05;;;;;;;20.45;83.03;96589.05;1663309;85;21018;-80
2021/06/23 05:09:52;;;;;;;12.28;10.98;;;;;;;20.46;83.07;96591.97;1649890;85;20989;-80
2021/06/23 05:12:18;;;;;;;11.38;10.08;;;;;;;20.51;83.26;96597.36;1667947;85;21276;-80
2021/06/23 05:14:43;;;;;;;12.20;10.15;;;;;;;20.61;83.31;96594.86;1667828;86;20922;-81
2021/06/23 05:17:10;;;;;;;11.03;9.90;;;;;;;20.69;83.26;96599.77;1648095;86;20946;-81
2021/06/23 05:19:37;;;;;;;10.90;9.80;;;;;;;20.76;83.12;96600.91;1666244;85;21252;-81
2021/06/23 05:22:04;;;;;;;12.23;10.85;;;;;;;20.76;82.76;96606.19;1669235;85;20983;-80
2021/06/23 05:24:32;;;;;;;12.05;10.85;;;;;;;20.73;82.57;96608.80;1654471;85;21318;-80
2021/06/23 05:26:59;;;;;;;13.30;11.93;;;;;;;20.67;82.62;96614.53;1659567;85;20990;-80
2021/06/23 05:29:24;;;;;;;12.15;10.10;;;;;;;20.70;82.82;96617.20;1668921;85;20987;-80
2021/06/23 05:31:50;;;;;;;11.38;9.40;;;;;;;20.77;82.86;96615.70;1669167;85;20963;-80
2021/06/23 05:34:16;;;;;;;11.73;10.53;;;;;;;20.86;82.72;96615.08;1667995;84;21071;-80
2021/06/23 05:36:42;;;;;;;8.83;7.95;;;;;;;20.98;83.07;96622.38;1649445;85;21030;-80
2021/06/23 05:39:08;;;;;;;9.60;8.70;;;;;;;21.06;82.53;96624.34;1666734;85;21012;-80
2021/06/23 05:41:33;;;;;;;8.18;7.37;;;;;;;20.95;82.18;96616.78;1648070;86;21043;-81
2021/06/23 05:43:59;;;;;;;6.55;5.92;;;;;;;20.86;82.15;96630.13;1663849;85;21382;-80
2021/06/23 05:46:25;;;;;;;7.37;6.55;;;;;;;20.76;82.16;96625.99;1664257;85;20942;-81
2021/06/23 05:48:51;;;;;;;7.37;6.67;;;;;;;20.78;82.51;96627.88;1644982;86;20946;-80
2021/06/23 05:51:16;;;;;;;6.78;5.75;;;;;;;20.75;82.57;96635.76;1661210;86;21004;-80
2021/06/23 05:53:42;;;;;;;6.97;6.17;;;;;;;20.74;82.90;96639.44;1672801;83;21321;-81
2021/06/23 05:56:08;;;;;;;7.30;6.60;;;;;;;20.75;82.95;96646.84;1627503;85;20980;-81
2021/06/23 05:58:34;;;;;;;8.13;7.33;;;;;;;20.80;83.14;96660.12;1657780;85;20974;-80
2021/06/23 06:01:01;;;;;;;9.90;8.15;;;;;;;20.83;83.03;96659.14;1650814;85;21301;-80
2021/06/23 06:03:27;;;;;;;9.10;8.18;;;;;;;20.86;82.97;96665.27;1638018;86;20997;-80
2021/06/23 06:05:53;;;;;;;10.72;8.88;;;;;;;20.90;82.98;96666.38;1635037;86;21283;-80
2021/06/23 06:08:19;;;;;;;12.55;10.55;;;;;;;20.93;82.86;96673.02;1635734;86;20906;-80
2021/06/23 06:10:45;;;;;;;10.80;9.38;;;;;;;20.93;82.86;96673.02;1652085;85;20992;-80
2021/06/23 06:13:11;;;;;;;11.95;9.83;;;;;;;20.89;82.50;96674.02;1634502;87;20974;-80
2021/06/23 06:15:37;;;;;;;12.05;10.65;;;;;;;20.84;82.62;96672.63;1636218;86;20986;-80
2021/06/23 06:18:05;;;;;;;11.78;10.58;;;;;;;20.85;82.49;96673.42;1637571;86;20974;-80
2021/06/23 06:20:31;;;;;;;12.85;11.40;;;;;;;20.81;82.46;96674.92;1624518;87;20983;-80
2021/06/23 06:22:57;;;;;;;12.82;11.15;;;;;;;20.82;82.67;96678.64;1643028;85;21034;-80
2021/06/23 06:25:22;;;;;;;12.43;10.90;;;;;;;20.81;82.65;96683.64;1631248;85;21367;-80
2021/06/23 06:27:48;;;;;;;12.23;10.93;;;;;;;20.78;82.78;96686.77;1652445;85;20982;-80
2021/06/23 06:30:16;;;;;;;14.03;11.63;;;;;;;20.72;82.73;96692.21;1625576;87;21299;-80
2021/06/23 06:32:42;;;;;;;13.08;11.83;;;;;;;20.77;83.23;96687.01;1645149;87;21047;-80
2021/06/23 06:35:10;;;;;;;10.63;9.53;;;;;;;20.88;83.26;96691.43;1656524;86;21003;-81
2021/06/23 06:37:35;;;;;;;11.55;10.35;;;;;;;20.96;82.84;96689.70;1655382;85;20988;-80
2021/06/23 06:40:01;;;;;;;12.33;11.12;;;;;;;21.01;82.81;96695.61;1668195;85;21335;-80
2021/06/23 06:42:27;;;;;;;11.80;10.13;;;;;;;21.10;82.80;96690.19;1647454;85;21011;-81
2021/06/23 06:44:53;;;;;;;8.93;8.03;;;;;;;21.22;82.88;96694.35;1639544;86;21010;-80
2021/06/23 06:47:18;;;;;;;9.75;8.63;;;;;;;21.28;82.17;96692.08;1640377;85;20933;-80
2021/06/23 06:49:44;;;;;;;9.33;8.38;;;;;;;21.31;81.64;96696.08;1676943;84;21045;-80
2021/06/23 06:52:10;;;;;;;10.70;7.97;;;;;;;21.26;81.58;96693.37;1696053;83;21009;-81
2021/06/23 06:54:36;;;;;;;9.75;8.75;;;;;;;21.28;82.06;96692.61;1692335;83;21048;-80
2021/06/23 06:57:02;;;;;;;10.35;9.23;;;;;;;21.36;82.47;96694.86;1640982;85;21314;-81
2021/06/23 06:59:30;;;;;;;14.73;9.95;;;;;;;21.46;82.49;96695.50;1678485;84;20986;-80
2021/06/23 07:01:56;;;;;;;12.35;9.88;;;;;;;21.62;82.77;96692.55;1684305;84;21255;-80
2021/06/23 07:04:21;;;;;;;8.78;7.87;;;;;;;21.79;82.99;96692.79;1682385;84;20979;-80
2021/06/23 07:06:47;;;;;;;9.10;8.20;;;;;;;21.88;82.16;96694.50;1692154;83;21009;-80
2021/06/23 07:09:14;;;;;;;7.90;7.10;;;;;;;21.88;81.88;96690.53;1692499;83;20939;-80
2021/06/23 07:11:39;;;;;;;8.95;8.15;;;;;;;21.72;81.10;96694.83;1677204;84;20969;-80
2021/06/23 07:14:05;;;;;;;11.68;9.08;;;;;;;21.71;81.44;96701.69;1683185;84;20912;-80
2021/06/23 07:16:32;;;;;;;11.15;8.85;;;;;;;21.72;81.65;96703.28;1684005;84;20977;-81
2021/06/23 07:18:58;;;;;;;12.60;11.30;;;;;;;21.70;81.59;96702.20;1685739;84;20967;-80
2021/06/23 07:21:24;;;;;;;13.62;12.13;;;;;;;21.61;81.15;96709.47;1684365;84;20963;-80
2021/06/23 07:23:53;;;;;;;11.73;10.53;;;;;;;21.46;80.86;96705.55;1689222;85;21002;-80
2021/06/23 07:26:18;;;;;;;12.73;11.30;;;;;;;21.38;81.25;96703.86;1653732;86;20963;-80
2021/06/23 07:28:53;;;;;;;16.35;13.60;;;;;;;21.37;81.40;96705.70;1672838;84;21000;-80
2021/06/23 07:36:37;;;;;;;13.45;12.00;;;;;;;21.07;81.76;96711.80;1683607;85;20926;-81
2021/06/23 07:39:10;;;;;;;14.65;13.00;;;;;;;21.04;82.06;96714.94;1682935;85;21226;-81
2021/06/23 07:41:38;;;;;;;14.68;12.28;;;;;;;21.02;82.20;96727.06;1660978;84;20940;-81
2021/06/23 07:44:04;;;;;;;17.80;14.60;;;;;;;21.09;82.67;96722.41;1675387;85;20993;-81
2021/06/23 07:46:35;;;;;;;16.77;14.80;;;;;;;21.13;82.36;96728.01;1669548;84;20969;-80
2021/06/23 07:48:59;;;;;;;15.93;14.33;;;;;;;21.09;82.50;96736.14;1676145;84;21318;-80
2021/06/23 07:51:38;;;;;;;16.12;13.95;;;;;;;21.10;82.44;96736.42;1674967;84;20961;-80
2021/06/23 07:54:46;;;;;;;17.35;15.58;;;;;;;21.05;82.13;96730.54;1646489;85;20918;-81
2021/06/23 07:56:38;;;;;;;17.23;14.40;;;;;;;20.95;82.15;96731.68;1644618;85;20917;-80
2021/06/23 08:09:58;;;;;;;15.25;13.70;;;;;;;20.85;82.72;96737.61;1675267;85;21373;-80
2021/06/23 08:12:26;;;;;;;15.53;13.22;;;;;;;20.88;83.03;96741.09;1659979;85;21045;-80
2021/06/23 08:14:50;;;;;;;15.03;13.43;;;;;;;20.92;83.34;96742.20;1670976;85;20988;-80
2021/06/23 08:17:16;;;;;;;16.50;13.43;;;;;;;20.92;83.01;96740.09;1663954;85;21012;-80
2021/06/23 08:19:41;;;;;;;15.50;13.88;;;;;;;20.92;83.02;96738.25;1673100;85;20940;-80
2021/06/23 08:22:10;;;;;;;15.32;13.78;;;;;;;20.91;83.13;96732.69;1672502;85;21541;-80
2021/06/23 08:24:35;;;;;;;15.30;13.58;;;;;;;20.91;83.13;96732.69;1673303;85;20965;-80
2021/06/23 08:27:00;;;;;;;17.23;15.40;;;;;;;20.95;83.08;96736.97;1645142;85;20937;-80
2021/06/23 08:29:26;;;;;;;15.53;13.95;;;;;;;20.95;83.14;96735.12;1666594;85;20948;-80
2021/06/23 08:31:52;;;;;;;14.47;12.95;;;;;;;20.98;83.25;96732.00;1666478;86;20928;-80
2021/06/23 08:34:17;;;;;;;14.38;12.78;;;;;;;20.96;82.92;96726.16;1663391;85;20993;-80
2021/06/23 08:36:43;;;;;;;13.65;12.20;;;;;;;20.96;82.90;96727.48;1651192;86;21265;-80
2021/06/23 08:39:09;;;;;;;16.12;13.93;;;;;;;21.00;83.03;96723.06;1665257;85;20933;-80
2021/06/23 08:41:37;;;;;;;15.13;13.55;;;;;;;21.06;83.27;96737.95;1682173;84;20901;-80
2021/06/23 08:44:02;;;;;;;15.10;13.60;;;;;;;21.04;83.09;96729.47;1649255;84;20970;-80
2021/06/23 08:46:30;;;;;;;17.15;13.72;;;;;;;21.07;83.21;96735.59;1651018;85;20952;-80
2021/06/23 08:48:57;;;;;;;16.40;14.05;;;;;;;21.10;83.41;96743.03;1641165;86;21020;-80
2021/06/23 08:51:25;;;;;;;16.77;14.65;;;;;;;21.15;83.29;96745.74;1647482;86;20986;-80
2021/06/23 08:53:51;;;;;;;16.73;14.95;;;;;;;21.10;82.84;96754.39;1662110;86;20951;-80
2021/06/23 08:56:17;;;;;;;15.98;14.38;;;;;;;21.06;82.92;96749.84;1666298;86;20925;-80
2021/06/23 08:58:43;;;;;;;24.45;20.08;;;;;;;21.03;83.03;96740.55;1645271;87;20981;-80
2021/06/23 09:01:09;;;;;;;26.62;22.13;;;;;;;20.99;82.55;96748.68;1654905;85;21314;-80
2021/06/23 09:04:06;;;;;;;21.52;19.23;;;;;;;20.94;82.97;96750.69;1661859;86;21009;-80
2021/06/23 09:06:52;;;;;;;25.08;21.60;;;;;;;20.86;82.93;96751.09;1671103;85;21036;-81
2021/06/23 09:09:25;;;;;;;22.07;19.52;;;;;;;20.79;83.48;96750.95;1668684;85;20969;-80
2021/06/23 09:11:59;;;;;;;23.30;20.65;;;;;;;20.80;83.58;96763.91;1666872;86;21271;-80
2021/06/23 09:14:28;;;;;;;24.75;21.33;;;;;;;20.84;83.45;96764.27;1670187;85;20926;-81
2021/06/23 09:17:17;;;;;;;30.05;24.90;;;;;;;20.84;83.63;96761.10;1666362;85;21369;-80
2021/06/23 09:20:00;;;;;;;26.10;22.45;;;;;;;20.80;83.58;96748.58;1641979;85;21003;-80
2021/06/23 09:22:41;;;;;;;28.05;23.27;;;;;;;20.83;83.78;96758.17;1666827;86;21259;-81
2021/06/23 09:25:14;;;;;;;;;;;;;;;20.85;83.78;96762.70;1650994;85;21294;-80
2021/06/23 09:27:51;;;;;;;;;;;;;;;20.93;83.95;96762.82;1654886;86;20094;-80
2021/06/23 09:30:38;;;;;;;24.47;20.70;;;;;;;20.90;83.94;96758.82;1665809;85;20341;-80
2021/06/23 09:33:21;;;;;;;24.12;20.68;;;;;;;20.86;84.03;96761.66;1655356;85;20991;-81
2021/06/23 09:36:07;;;;;;;25.00;21.55;;;;;;;20.87;83.97;96760.63;1670207;86;21055;-81
2021/06/23 09:38:48;;;;;;;24.45;20.45;;;;;;;20.83;84.13;96760.82;1668179;85;20943;-81
2021/06/23 09:41:33;;;;;;;22.13;19.23;;;;;;;20.88;84.44;96764.06;1671593;85;20992;-80
2021/06/23 09:44:03;;;;;;;19.75;17.50;;;;;;;20.92;84.46;96765.98;1665652;85;21037;-81
2021/06/23 09:46:33;;;;;;;27.55;21.10;;;;;;;20.92;84.28;96763.34;1666777;85;21296;-80
2021/06/23 09:49:13;;;;;;;29.10;23.75;;;;;;;20.91;84.37;96769.66;1687852;85;21325;-80
2021/06/23 09:51:42;;;;;;;25.50;22.62;;;;;;;20.97;84.36;96765.27;1657718;86;21343;-80
2021/06/23 09:54:07;;;;;;;26.37;22.05;;;;;;;21.02;84.49;96771.97;1675043;85;20998;-80
2021/06/23 09:56:38;;;;;;;25.52;22.73;;;;;;;21.06;84.21;96768.33;1663697;86;21017;-80
2021/06/23 09:59:04;;;;;;;28.07;23.77;;;;;;;21.01;84.05;96772.22;1663697;85;21306;-81
2021/06/23 10:01:32;;;;;;;24.70;20.40;;;;;;;20.96;84.33;96779.51;1677386;84;20968;-80
2021/06/23 10:04:08;;;;;;;27.40;22.93;;;;;;;20.98;84.57;96778.75;1632153;87;21014;-80
2021/06/23 10:06:45;;;;;;;28.60;21.80;;;;;;;20.98;84.53;96778.75;1641392;86;20953;-80
2021/06/23 10:09:24;;;;;;;28.70;24.10;;;;;;;21.05;84.65;96772.02;1645946;85;21147;-81
2021/06/23 10:12:01;;;;;;;29.72;24.20;;;;;;;21.11;84.55;96771.05;1644089;86;21385;-81
2021/06/23 10:14:28;;;;;;;26.27;22.15;;;;;;;21.17;84.43;96771.44;1663423;85;21030;-81
2021/06/23 10:16:54;;;;;;;23.45;20.77;;;;;;;21.21;84.42;96773.34;1640434;86;21002;-80
2021/06/23 10:19:20;;;;;;;25.90;22.67;;;;;;;21.27;84.31;96776.37;1639516;86;21042;-81
2021/06/23 10:21:46;;;;;;;30.55;23.90;;;;;;;21.35;84.49;96765.94;1670043;85;21025;-81
2021/06/23 10:24:13;;;;;;;27.27;23.10;;;;;;;21.37;84.24;96776.27;1664720;85;21003;-80
2021/06/23 10:26:50;;;;;;;32.28;25.10;;;;;;;21.39;84.55;96772.34;1660208;84;21317;-81
2021/06/23 10:29:27;;;;;;;30.72;23.52;;;;;;;21.44;84.32;96769.77;1664392;84;21408;-81
2021/06/23 10:31:53;;;;;;;28.95;23.90;;;;;;;21.50;84.40;96770.15;1677768;84;20949;-80
2021/06/23 10:34:19;;;;;;;25.85;21.27;;;;;;;21.55;84.21;96774.18;1676181;84;20965;-80
2021/06/23 10:36:46;;;;;;;30.27;23.20;;;;;;;21.62;84.39;96774.00;1640472;86;21007;-81
2021/06/23 10:39:12;;;;;;;30.05;24.95;;;;;;;21.70;84.29;96782.06;1640264;86;21056;-81
2021/06/23 10:41:40;;;;;;;36.35;27.77;;;;;;;21.75;84.15;96777.64;1660618;85;21283;-81
2021/06/23 10:44:24;;;;;;;29.23;23.18;;;;;;;21.76;83.81;96775.80;1659532;85;20973;-80
2021/06/23 10:46:55;;;;;;;32.50;25.12;;;;;;;21.78;84.09;96775.03;1635282;85;20995;-81
2021/06/23 10:49:42;;;;;;;;;;;;;;;21.80;84.03;96780.38;1641016;85;20896;-81
2021/06/23 10:52:26;;;;;;;31.70;25.62;;;;;;;21.84;83.99;96775.40;1623044;86;20182;-81
2021/06/23 10:54:56;;;;;;;36.95;28.42;;;;;;;21.85;83.98;96773.03;1652813;85;20952;-81
2021/06/23 10:57:36;;;;;;;45.50;30.70;;;;;;;21.91;84.06;96769.40;1672115;85;20940;-81
2021/06/23 11:00:31;;;;;;;33.05;25.15;;;;;;;21.97;83.71;96775.58;1682050;84;20951;-81
2021/06/23 11:03:07;;;;;;;43.87;32.53;;;;;;;21.99;83.92;96766.34;1669252;84;20975;-80
2021/06/23 11:05:36;;;;;;;39.18;29.72;;;;;;;22.01;83.58;96765.58;1654058;85;21051;-80
2021/06/23 11:08:02;;;;;;;28.67;23.00;;;;;;;21.95;83.27;96773.67;1648656;85;20955;-80
2021/06/23 11:10:35;;;;;;;31.75;23.65;;;;;;;21.98;83.53;96777.98;1650388;84;21103;-80
2021/06/23 11:13:06;;;;;;;42.15;31.00;;;;;;;22.02;83.47;96778.28;1690360;83;21038;-80
2021/06/23 11:15:36;;;;;;;47.03;35.60;;;;;;;22.00;83.08;96776.41;1671376;84;20920;-80
2021/06/23 11:18:31;;;;;;;43.65;33.02;;;;;;;21.99;83.03;96778.78;1675106;84;20943;-80
2021/06/23 11:21:18;;;;;;;45.40;33.48;;;;;;;21.95;82.87;96787.70;1675895;84;21292;-80
2021/06/23 11:24:05;;;;;;;47.65;33.85;;;;;;;21.88;82.70;96784.44;1666413;84;20997;-80
2021/06/23 11:26:39;;;;;;;43.75;34.78;;;;;;;21.84;82.79;96792.06;1642297;85;20932;-80
2021/06/23 11:29:16;;;;;;;43.58;33.02;;;;;;;21.81;82.72;96791.76;1682232;84;21298;-80
2021/06/23 11:32:03;;;;;;;48.73;34.23;;;;;;;21.81;82.97;96791.76;1683283;84;20941;-80
2021/06/23 11:34:46;;;;;;;34.92;28.57;;;;;;;21.85;82.99;96794.19;1683254;85;20989;-80
2021/06/23 11:37:15;;;;;;;46.80;33.85;;;;;;;21.89;83.07;96793.98;1656454;84;21038;-79
2021/06/23 11:39:41;;;;;;;38.65;31.07;;;;;;;21.90;83.00;96786.31;1676659;84;20931;-80
2021/06/23 11:42:08;;;;;;;41.68;30.45;;;;;;;21.92;82.95;96780.78;1648154;84;21413;-79
2021/06/23 11:44:35;;;;;;;38.98;30.37;;;;;;;21.89;82.78;96787.36;1651592;84;20903;-80